Kimberly Turecamo — WDC6838 — position and weather

sailwx.info

Track history (hours):
 
Tides and Currents Weather Stations Pressure Air Temp Water Temp Dewpoint Dewpoint Depression Visibility Wind Speed Wind Dir Waves Ship Positions

Kimberly Turecamo

Owner: Moran Towing Corporation, New Canaan, CT. More information available from US FCC via Universal Licensing System and Coast Guard Vessel Documentation Center.

Last reported at 2015-Aug-27 20:33 UTC. Time now 2015-Aug-27 20:46 UTC.
Position N 40°39' W 074°09'.

Length 33 m; draft 5 m.

Type: Tug. MMSI: 367061980.

Date/timePositionNaut miles runAvg speedWind from/ knotsBaromVisibWave heightAir tempDewpointWater temp
2015-Aug-27 20:33N 40°39' W 074°09'1 1.1
2015-Aug-27 19:33N 40°40' W 074°09'0 0.5
2015-Aug-27 18:33N 40°39' W 074°09'1 1.1
2015-Aug-27 17:33N 40°38' W 074°08'0 0.0
2015-Aug-27 16:33N 40°38' W 074°08'0 0.4
2015-Aug-27 15:33N 40°39' W 074°07'9 8.4
2015-Aug-27 14:29N 40°44' W 073°58'7 7.3
2015-Aug-27 13:33N 40°39' W 074°04'3 3.1
2015-Aug-27 12:33N 40°38' W 074°08'3 2.5
2015-Aug-27 11:33N 40°41' W 074°08'2 2.5
2015-Aug-27 10:34N 40°39' W 074°08'0 0.4
2015-Aug-27 09:31N 40°38' W 074°08'0 0.0
2015-Aug-27 08:34N 40°38' W 074°08'0 0.0
2015-Aug-27 07:34N 40°38' W 074°08'0 0.0
2015-Aug-27 06:34N 40°38' W 074°08'2 1.6
2015-Aug-27 05:33N 40°39' W 074°06'1 0.9
2015-Aug-27 04:33N 40°39' W 074°05'1 0.9
2015-Aug-27 03:33N 40°39' W 074°06'2 1.6
2015-Aug-27 02:33N 40°38' W 074°08'0 0.0
2015-Aug-27 01:33N 40°38' W 074°08'0 0.0
2015-Aug-27 00:33N 40°38' W 074°08'5 2.3
2015-Aug-26 22:18N 40°35' W 074°13'1 0.5
2015-Aug-26 20:24N 40°36' W 074°12'4 4.8
2015-Aug-26 19:31N 40°38' W 074°08'0 0.0
2015-Aug-26 18:10N 40°38' W 074°08'0 0.0
2015-Aug-26 17:25N 40°38' W 074°08'2 2.2
2015-Aug-26 16:33N 40°40' W 074°08'2 1.8
2015-Aug-26 15:33N 40°39' W 074°09'4 4.2
2015-Aug-26 14:31N 40°38' W 074°03'4 2.9
2015-Aug-26 13:15N 40°38' W 074°08'3 4.9
2015-Aug-26 12:33N 40°42' W 074°09'1 0.3
2015-Aug-26 10:33N 40°42' W 074°08'2 1.5
2015-Aug-26 09:27N 40°40' W 074°08'4 4.2
2015-Aug-26 08:33N 40°39' W 074°04'3 2.8
2015-Aug-26 07:28N 40°38' W 074°08'0 0.0
2015-Aug-26 06:28N 40°38' W 074°08'0 0.0
2015-Aug-26 04:25N 40°38' W 074°08'0 0.0
2015-Aug-26 03:25N 40°38' W 074°08'0 0.0
2015-Aug-26 02:10N 40°38' W 074°08'0 0.0
2015-Aug-26 01:28N 40°38' W 074°08'1 1.1
2015-Aug-26 00:34N 40°39' W 074°07'5 5.2
2015-Aug-25 23:33N 40°41' W 074°01'7 6.5
2015-Aug-25 22:33N 40°39' W 074°09'2 2.3
2015-Aug-25 21:33N 40°42' W 074°08'1 1.1
2015-Aug-25 20:33N 40°41' W 074°08'2 2.1
2015-Aug-25 19:31N 40°38' W 074°08'0 0.0
2015-Aug-25 18:31N 40°38' W 074°08'0 0.0
2015-Aug-25 17:31N 40°38' W 074°08'0 0.0
2015-Aug-25 16:31N 40°38' W 074°08'0 0.0
2015-Aug-25 15:31N 40°38' W 074°08'0 0.0
2015-Aug-25 14:31N 40°38' W 074°08'0 0.1
2015-Aug-25 13:33N 40°39' W 074°08'3 2.1
2015-Aug-25 12:19N 40°39' W 074°11'6 8.2
2015-Aug-25 11:33N 40°40' W 074°03'1 0.5
2015-Aug-25 10:33N 40°40' W 074°03'4 4.2
2015-Aug-25 09:33N 40°39' W 074°08'1 1.4
2015-Aug-25 08:29N 40°40' W 074°09'2 1.7
2015-Aug-25 07:32N 40°38' W 074°08'0 0.0
2015-Aug-25 06:32N 40°38' W 074°08'0 0.0
2015-Aug-25 05:32N 40°38' W 074°08'0 0.0
2015-Aug-25 04:32N 40°38' W 074°08'0 0.0
2015-Aug-25 03:32N 40°38' W 074°08'0 0.0
2015-Aug-25 02:32N 40°38' W 074°08'0 0.0
2015-Aug-25 01:32N 40°38' W 074°08'1 1.0
2015-Aug-25 00:30N 40°39' W 074°09'2 2.2
2015-Aug-24 23:33N 40°41' W 074°09'0 0.1
2015-Aug-24 22:32N 40°41' W 074°09'1 1.0
2015-Aug-24 21:31N 40°42' W 074°09'1 0.9
2015-Aug-24 20:33N 40°41' W 074°08'0 0.3
2015-Aug-24 19:31N 40°42' W 074°08'3 3.5
2015-Aug-24 18:34N 40°40' W 074°04'0 0.3
2015-Aug-24 17:33N 40°40' W 074°05'0 0.4
2015-Aug-24 16:29N 40°40' W 074°04'0 0.0
2015-Aug-24 15:32N 40°40' W 074°04'0 0.1
2015-Aug-24 14:32N 40°40' W 074°04'2 1.8
2015-Aug-24 13:31N 40°39' W 074°06'2 2.5
2015-Aug-24 12:33N 40°39' W 074°03'4 3.6
2015-Aug-24 11:32N 40°38' W 074°08'1 1.1
2015-Aug-24 10:34N 40°39' W 074°09'1 1.1
2015-Aug-24 09:34N 40°38' W 074°08'0 0.0
2015-Aug-24 08:33N 40°38' W 074°08'0 0.0
2015-Aug-24 07:33N 40°38' W 074°08'0 0.0
2015-Aug-24 06:33N 40°38' W 074°08'0 0.0
2015-Aug-24 05:33N 40°38' W 074°08'0 0.0
2015-Aug-24 04:33N 40°38' W 074°08'0 0.0
2015-Aug-24 03:33N 40°38' W 074°08'0 0.0
2015-Aug-24 02:33N 40°38' W 074°08'4 1.4
2015-Aug-23 23:33N 40°36' W 074°12'4 4.2
2015-Aug-23 22:33N 40°38' W 074°08'0 0.0
2015-Aug-23 21:33N 40°38' W 074°08'9 7.9
2015-Aug-23 20:27N 40°32' W 074°15'0 0.3
2015-Aug-23 19:11N 40°32' W 074°15'5 8.3
2015-Aug-23 18:33N 40°37' W 074°12'4 3.7
2015-Aug-23 17:32N 40°38' W 074°08'0 0.2
2015-Aug-23 16:33N 40°39' W 074°08'3 2.7
2015-Aug-23 15:33N 40°41' W 074°09'4 4.3
2015-Aug-23 14:33N 40°39' W 074°04'3 2.7
2015-Aug-23 13:33N 40°38' W 074°08'0 0.0
2015-Aug-23 12:33N 40°38' W 074°08'0 0.0
2015-Aug-23 11:33N 40°38' W 074°08'0 0.1
2015-Aug-23 10:33N 40°39' W 074°08'2 2.2
2015-Aug-23 09:29N 40°41' W 074°09'2 2.6
2015-Aug-23 08:34N 40°39' W 074°08'3 3.3
2015-Aug-23 07:31N 40°41' W 074°04'4 3.8
2015-Aug-23 06:33N 40°38' W 074°08'0 0.0
2015-Aug-23 05:33N 40°38' W 074°08'3 2.8
2015-Aug-23 04:30N 40°40' W 074°05'3 3.0
2015-Aug-23 03:31N 40°38' W 074°08'0 0.0
2015-Aug-23 02:31N 40°38' W 074°08'0 0.0
2015-Aug-23 01:31N 40°38' W 074°08'0 0.0
2015-Aug-23 00:31N 40°38' W 074°08'0 0.0
2015-Aug-22 23:31N 40°38' W 074°08'1 1.2
2015-Aug-22 22:34N 40°39' W 074°09'1 1.2
2015-Aug-22 21:33N 40°39' W 074°07'1 1.2
2015-Aug-22 20:33N 40°39' W 074°09'3 2.8
2015-Aug-22 19:31N 40°39' W 074°05'5 5.5
2015-Aug-22 18:33N 40°38' W 074°12'3 2.4
2015-Aug-22 17:17N 40°35' W 074°12'4 5.0
2015-Aug-22 16:33N 40°39' W 074°11'3 2.6
2015-Aug-22 15:33N 40°38' W 074°08'3 3.1
2015-Aug-22 14:28N 40°38' W 074°12'3 3.7
2015-Aug-22 13:33N 40°39' W 074°08'0 0.1
2015-Aug-22 12:33N 40°38' W 074°08'0 0.0
2015-Aug-22 11:33N 40°38' W 074°08'2 2.2
2015-Aug-22 10:34N 40°39' W 074°05'3 3.3
2015-Aug-22 09:33N 40°39' W 074°10'7 6.5
2015-Aug-22 08:32N 40°33' W 074°15'0 0.2
2015-Aug-22 07:33N 40°33' W 074°14'0 0.0
2015-Aug-22 05:29N 40°33' W 074°14'1 0.7
2015-Aug-22 04:23N 40°33' W 074°13'6 7.3
2015-Aug-22 03:33N 40°39' W 074°10'2 1.6
2015-Aug-22 02:28N 40°38' W 074°12'3 3.2
2015-Aug-22 01:31N 40°38' W 074°08'2 2.3
2015-Aug-22 00:33N 40°39' W 074°05'2 1.5
2015-Aug-21 23:33N 40°38' W 074°03'3 3.2
2015-Aug-21 22:31N 40°38' W 074°08'0 0.0
2015-Aug-21 21:31N 40°38' W 074°08'0 0.0
2015-Aug-21 20:31N 40°38' W 074°08'0 0.0
2015-Aug-21 19:31N 40°38' W 074°08'2 0.8
2015-Aug-21 17:33N 40°39' W 074°06'1 0.6
2015-Aug-21 16:33N 40°39' W 074°07'1 1.0
2015-Aug-21 15:31N 40°38' W 074°08'0 0.0
2015-Aug-21 14:31N 40°38' W 074°08'0 0.0
2015-Aug-21 13:28N 40°38' W 074°08'0 0.0
2015-Aug-21 12:33N 40°38' W 074°08'0 0.0
2015-Aug-21 11:33N 40°38' W 074°08'0 0.0
2015-Aug-21 10:33N 40°38' W 074°08'0 0.0
2015-Aug-21 09:33N 40°38' W 074°08'0 0.0
2015-Aug-21 08:33N 40°38' W 074°08'0 0.0
2015-Aug-21 07:33N 40°38' W 074°08'0 0.0
2015-Aug-21 06:33N 40°38' W 074°08'0 0.0
2015-Aug-21 05:33N 40°38' W 074°08'0 0.0
2015-Aug-21 04:33N 40°38' W 074°08'0 0.0
2015-Aug-21 03:33N 40°38' W 074°08'0 0.0
2015-Aug-21 02:33N 40°38' W 074°08'0 0.0
2015-Aug-21 01:33N 40°38' W 074°08'0 0.0
2015-Aug-21 00:33N 40°38' W 074°08'0 0.0
2015-Aug-20 23:33N 40°38' W 074°08'0 0.0
2015-Aug-20 22:33N 40°38' W 074°08'0 0.0
2015-Aug-20 21:33N 40°38' W 074°08'0 0.0
2015-Aug-20 20:33N 40°38' W 074°08'0 0.0
2015-Aug-20 19:33N 40°38' W 074°08'0 0.0
2015-Aug-20 18:33N 40°38' W 074°08'0 0.0
2015-Aug-20 17:32N 40°38' W 074°08'1 1.1
2015-Aug-20 16:33N 40°39' W 074°07'0 0.0
2015-Aug-20 15:30N 40°39' W 074°07'0 0.0
2015-Aug-20 14:33N 40°39' W 074°07'0 0.0
2015-Aug-20 13:33N 40°39' W 074°07'0 0.0
2015-Aug-20 12:33N 40°39' W 074°07'0 0.0
2015-Aug-20 11:30N 40°39' W 074°07'0 0.0
2015-Aug-20 10:33N 40°39' W 074°07'1 1.0
2015-Aug-20 09:31N 40°38' W 074°08'0 0.0
2015-Aug-20 08:31N 40°38' W 074°08'0 0.0
2015-Aug-20 07:31N 40°38' W 074°08'0 0.0
2015-Aug-20 06:31N 40°38' W 074°08'0 0.0
2015-Aug-20 05:31N 40°38' W 074°08'0 0.0
2015-Aug-20 04:31N 40°38' W 074°08'0 0.0
2015-Aug-20 03:31N 40°38' W 074°08'0 0.0
2015-Aug-20 02:31N 40°38' W 074°08'0 0.0
2015-Aug-20 01:31N 40°38' W 074°08'0 0.0
2015-Aug-20 00:31N 40°38' W 074°08'0 0.0
2015-Aug-19 23:31N 40°38' W 074°08'0 0.0
2015-Aug-19 22:31N 40°38' W 074°08'0 0.0
2015-Aug-19 21:31N 40°38' W 074°08'0 0.0
2015-Aug-19 20:31N 40°38' W 074°08'0 0.0
2015-Aug-19 19:31N 40°38' W 074°08'0 0.5
2015-Aug-19 18:30N 40°39' W 074°07'0 0.0
2015-Aug-19 17:30N 40°38' W 074°07'0 0.0
2015-Aug-19 16:33N 40°39' W 074°07'0 0.0
2015-Aug-19 15:23N 40°38' W 074°07'0 0.0
2015-Aug-19 14:32N 40°39' W 074°07'0 0.0
2015-Aug-19 13:30N 40°39' W 074°07'0 0.0
2015-Aug-19 12:33N 40°39' W 074°07'0 0.0
2015-Aug-19 10:33N 40°38' W 074°07'0 0.0
2015-Aug-19 09:33N 40°39' W 074°07'0 0.0
2015-Aug-19 08:27N 40°39' W 074°07'0 0.0
2015-Aug-19 07:27N 40°38' W 074°07'0 0.0
2015-Aug-19 05:33N 40°38' W 074°07'0 0.0
2015-Aug-19 04:33N 40°39' W 074°07'0 0.0
2015-Aug-19 03:27N 40°38' W 074°07'0 0.0
2015-Aug-19 02:33N 40°38' W 074°07'0 0.0
2015-Aug-19 01:30N 40°39' W 074°07'0 0.0
2015-Aug-19 00:33N 40°39' W 074°07'0 0.0
2015-Aug-18 23:33N 40°38' W 074°07'0 0.0
2015-Aug-18 22:28N 40°38' W 074°07'0 0.0
2015-Aug-18 21:24N 40°39' W 074°07'0 0.0
2015-Aug-18 20:33N 40°38' W 074°07'0 0.0
2015-Aug-18 19:33N 40°39' W 074°07'0 0.0
2015-Aug-18 18:24N 40°39' W 074°07'0 0.0
2015-Aug-18 17:33N 40°38' W 074°07'0 0.0
2015-Aug-18 16:33N 40°38' W 074°07'0 0.0
2015-Aug-18 15:33N 40°38' W 074°07'0 0.0
2015-Aug-18 14:33N 40°38' W 074°07'0 0.0
2015-Aug-18 13:26N 40°39' W 074°07'  
Track history (hours):
 
Tides and Currents Weather Stations Pressure Air Temp Water Temp Dewpoint Dewpoint Depression Visibility Wind Speed Wind Dir Waves Ship Positions

Kimberly Turecamo

Owner: Moran Towing Corporation, New Canaan, CT. More information available from US FCC via Universal Licensing System and Coast Guard Vessel Documentation Center.

Last reported at 2015-Aug-27 20:33 UTC. Time now 2015-Aug-27 20:46 UTC.
Position N 40°39' W 074°09'.

Length 33 m; draft 5 m.

Type: Tug. MMSI: 367061980.

Date/timePositionNaut miles runAvg speedWind from/ knotsBaromVisibWave heightAir tempDewpointWater temp
2015-Aug-27 20:33N 40°39' W 074°09'1 1.1
2015-Aug-27 19:33N 40°40' W 074°09'0 0.5
2015-Aug-27 18:33N 40°39' W 074°09'1 1.1
2015-Aug-27 17:33N 40°38' W 074°08'0 0.0
2015-Aug-27 16:33N 40°38' W 074°08'0 0.4
2015-Aug-27 15:33N 40°39' W 074°07'9 8.4
2015-Aug-27 14:29N 40°44' W 073°58'7 7.3
2015-Aug-27 13:33N 40°39' W 074°04'3 3.1
2015-Aug-27 12:33N 40°38' W 074°08'3 2.5
2015-Aug-27 11:33N 40°41' W 074°08'2 2.5
2015-Aug-27 10:34N 40°39' W 074°08'0 0.4
2015-Aug-27 09:31N 40°38' W 074°08'0 0.0
2015-Aug-27 08:34N 40°38' W 074°08'0 0.0
2015-Aug-27 07:34N 40°38' W 074°08'0 0.0
2015-Aug-27 06:34N 40°38' W 074°08'2 1.6
2015-Aug-27 05:33N 40°39' W 074°06'1 0.9
2015-Aug-27 04:33N 40°39' W 074°05'1 0.9
2015-Aug-27 03:33N 40°39' W 074°06'2 1.6
2015-Aug-27 02:33N 40°38' W 074°08'0 0.0
2015-Aug-27 01:33N 40°38' W 074°08'0 0.0
2015-Aug-27 00:33N 40°38' W 074°08'5 2.3
2015-Aug-26 22:18N 40°35' W 074°13'1 0.5
2015-Aug-26 20:24N 40°36' W 074°12'4 4.8
2015-Aug-26 19:31N 40°38' W 074°08'0 0.0
2015-Aug-26 18:10N 40°38' W 074°08'0 0.0
2015-Aug-26 17:25N 40°38' W 074°08'2 2.2
2015-Aug-26 16:33N 40°40' W 074°08'2 1.8
2015-Aug-26 15:33N 40°39' W 074°09'4 4.2
2015-Aug-26 14:31N 40°38' W 074°03'4 2.9
2015-Aug-26 13:15N 40°38' W 074°08'3 4.9
2015-Aug-26 12:33N 40°42' W 074°09'1 0.3
2015-Aug-26 10:33N 40°42' W 074°08'2 1.5
2015-Aug-26 09:27N 40°40' W 074°08'4 4.2
2015-Aug-26 08:33N 40°39' W 074°04'3 2.8
2015-Aug-26 07:28N 40°38' W 074°08'0 0.0
2015-Aug-26 06:28N 40°38' W 074°08'0 0.0
2015-Aug-26 04:25N 40°38' W 074°08'0 0.0
2015-Aug-26 03:25N 40°38' W 074°08'0 0.0
2015-Aug-26 02:10N 40°38' W 074°08'0 0.0
2015-Aug-26 01:28N 40°38' W 074°08'1 1.1
2015-Aug-26 00:34N 40°39' W 074°07'5 5.2
2015-Aug-25 23:33N 40°41' W 074°01'7 6.5
2015-Aug-25 22:33N 40°39' W 074°09'2 2.3
2015-Aug-25 21:33N 40°42' W 074°08'1 1.1
2015-Aug-25 20:33N 40°41' W 074°08'2 2.1
2015-Aug-25 19:31N 40°38' W 074°08'0 0.0
2015-Aug-25 18:31N 40°38' W 074°08'0 0.0
2015-Aug-25 17:31N 40°38' W 074°08'0 0.0
2015-Aug-25 16:31N 40°38' W 074°08'0 0.0
2015-Aug-25 15:31N 40°38' W 074°08'0 0.0
2015-Aug-25 14:31N 40°38' W 074°08'0 0.1
2015-Aug-25 13:33N 40°39' W 074°08'3 2.1
2015-Aug-25 12:19N 40°39' W 074°11'6 8.2
2015-Aug-25 11:33N 40°40' W 074°03'1 0.5
2015-Aug-25 10:33N 40°40' W 074°03'4 4.2
2015-Aug-25 09:33N 40°39' W 074°08'1 1.4
2015-Aug-25 08:29N 40°40' W 074°09'2 1.7
2015-Aug-25 07:32N 40°38' W 074°08'0 0.0
2015-Aug-25 06:32N 40°38' W 074°08'0 0.0
2015-Aug-25 05:32N 40°38' W 074°08'0 0.0
2015-Aug-25 04:32N 40°38' W 074°08'0 0.0
2015-Aug-25 03:32N 40°38' W 074°08'0 0.0
2015-Aug-25 02:32N 40°38' W 074°08'0 0.0
2015-Aug-25 01:32N 40°38' W 074°08'1 1.0
2015-Aug-25 00:30N 40°39' W 074°09'2 2.2
2015-Aug-24 23:33N 40°41' W 074°09'0 0.1
2015-Aug-24 22:32N 40°41' W 074°09'1 1.0
2015-Aug-24 21:31N 40°42' W 074°09'1 0.9
2015-Aug-24 20:33N 40°41' W 074°08'0 0.3
2015-Aug-24 19:31N 40°42' W 074°08'3 3.5
2015-Aug-24 18:34N 40°40' W 074°04'0 0.3
2015-Aug-24 17:33N 40°40' W 074°05'0 0.4
2015-Aug-24 16:29N 40°40' W 074°04'0 0.0
2015-Aug-24 15:32N 40°40' W 074°04'0 0.1
2015-Aug-24 14:32N 40°40' W 074°04'2 1.8
2015-Aug-24 13:31N 40°39' W 074°06'2 2.5
2015-Aug-24 12:33N 40°39' W 074°03'4 3.6
2015-Aug-24 11:32N 40°38' W 074°08'1 1.1
2015-Aug-24 10:34N 40°39' W 074°09'1 1.1
2015-Aug-24 09:34N 40°38' W 074°08'0 0.0
2015-Aug-24 08:33N 40°38' W 074°08'0 0.0
2015-Aug-24 07:33N 40°38' W 074°08'0 0.0
2015-Aug-24 06:33N 40°38' W 074°08'0 0.0
2015-Aug-24 05:33N 40°38' W 074°08'0 0.0
2015-Aug-24 04:33N 40°38' W 074°08'0 0.0
2015-Aug-24 03:33N 40°38' W 074°08'0 0.0
2015-Aug-24 02:33N 40°38' W 074°08'4 1.4
2015-Aug-23 23:33N 40°36' W 074°12'4 4.2
2015-Aug-23 22:33N 40°38' W 074°08'0 0.0
2015-Aug-23 21:33N 40°38' W 074°08'9 7.9
2015-Aug-23 20:27N 40°32' W 074°15'0 0.3
2015-Aug-23 19:11N 40°32' W 074°15'5 8.3
2015-Aug-23 18:33N 40°37' W 074°12'4 3.7
2015-Aug-23 17:32N 40°38' W 074°08'0 0.2
2015-Aug-23 16:33N 40°39' W 074°08'3 2.7
2015-Aug-23 15:33N 40°41' W 074°09'4 4.3
2015-Aug-23 14:33N 40°39' W 074°04'3 2.7
2015-Aug-23 13:33N 40°38' W 074°08'0 0.0
2015-Aug-23 12:33N 40°38' W 074°08'0 0.0
2015-Aug-23 11:33N 40°38' W 074°08'0 0.1
2015-Aug-23 10:33N 40°39' W 074°08'2 2.2
2015-Aug-23 09:29N 40°41' W 074°09'2 2.6
2015-Aug-23 08:34N 40°39' W 074°08'3 3.3
2015-Aug-23 07:31N 40°41' W 074°04'4 3.8
2015-Aug-23 06:33N 40°38' W 074°08'0 0.0
2015-Aug-23 05:33N 40°38' W 074°08'3 2.8
2015-Aug-23 04:30N 40°40' W 074°05'3 3.0
2015-Aug-23 03:31N 40°38' W 074°08'0 0.0
2015-Aug-23 02:31N 40°38' W 074°08'0 0.0
2015-Aug-23 01:31N 40°38' W 074°08'0 0.0
2015-Aug-23 00:31N 40°38' W 074°08'0 0.0
2015-Aug-22 23:31N 40°38' W 074°08'1 1.2
2015-Aug-22 22:34N 40°39' W 074°09'1 1.2
2015-Aug-22 21:33N 40°39' W 074°07'1 1.2
2015-Aug-22 20:33N 40°39' W 074°09'3 2.8
2015-Aug-22 19:31N 40°39' W 074°05'5 5.5
2015-Aug-22 18:33N 40°38' W 074°12'3 2.4
2015-Aug-22 17:17N 40°35' W 074°12'4 5.0
2015-Aug-22 16:33N 40°39' W 074°11'3 2.6
2015-Aug-22 15:33N 40°38' W 074°08'3 3.1
2015-Aug-22 14:28N 40°38' W 074°12'3 3.7
2015-Aug-22 13:33N 40°39' W 074°08'0 0.1
2015-Aug-22 12:33N 40°38' W 074°08'0 0.0
2015-Aug-22 11:33N 40°38' W 074°08'2 2.2
2015-Aug-22 10:34N 40°39' W 074°05'3 3.3
2015-Aug-22 09:33N 40°39' W 074°10'7 6.5
2015-Aug-22 08:32N 40°33' W 074°15'0 0.2
2015-Aug-22 07:33N 40°33' W 074°14'0 0.0
2015-Aug-22 05:29N 40°33' W 074°14'1 0.7
2015-Aug-22 04:23N 40°33' W 074°13'6 7.3
2015-Aug-22 03:33N 40°39' W 074°10'2 1.6
2015-Aug-22 02:28N 40°38' W 074°12'3 3.2
2015-Aug-22 01:31N 40°38' W 074°08'2 2.3
2015-Aug-22 00:33N 40°39' W 074°05'2 1.5
2015-Aug-21 23:33N 40°38' W 074°03'3 3.2
2015-Aug-21 22:31N 40°38' W 074°08'0 0.0
2015-Aug-21 21:31N 40°38' W 074°08'0 0.0
2015-Aug-21 20:31N 40°38' W 074°08'0 0.0
2015-Aug-21 19:31N 40°38' W 074°08'2 0.8
2015-Aug-21 17:33N 40°39' W 074°06'1 0.6
2015-Aug-21 16:33N 40°39' W 074°07'1 1.0
2015-Aug-21 15:31N 40°38' W 074°08'0 0.0
2015-Aug-21 14:31N 40°38' W 074°08'0 0.0
2015-Aug-21 13:28N 40°38' W 074°08'0 0.0
2015-Aug-21 12:33N 40°38' W 074°08'0 0.0
2015-Aug-21 11:33N 40°38' W 074°08'0 0.0
2015-Aug-21 10:33N 40°38' W 074°08'0 0.0
2015-Aug-21 09:33N 40°38' W 074°08'0 0.0
2015-Aug-21 08:33N 40°38' W 074°08'0 0.0
2015-Aug-21 07:33N 40°38' W 074°08'0 0.0
2015-Aug-21 06:33N 40°38' W 074°08'0 0.0
2015-Aug-21 05:33N 40°38' W 074°08'0 0.0
2015-Aug-21 04:33N 40°38' W 074°08'0 0.0
2015-Aug-21 03:33N 40°38' W 074°08'0 0.0
2015-Aug-21 02:33N 40°38' W 074°08'0 0.0
2015-Aug-21 01:33N 40°38' W 074°08'0 0.0
2015-Aug-21 00:33N 40°38' W 074°08'0 0.0
2015-Aug-20 23:33N 40°38' W 074°08'0 0.0
2015-Aug-20 22:33N 40°38' W 074°08'0 0.0
2015-Aug-20 21:33N 40°38' W 074°08'0 0.0
2015-Aug-20 20:33N 40°38' W 074°08'0 0.0
2015-Aug-20 19:33N 40°38' W 074°08'0 0.0
2015-Aug-20 18:33N 40°38' W 074°08'0 0.0
2015-Aug-20 17:32N 40°38' W 074°08'1 1.1
2015-Aug-20 16:33N 40°39' W 074°07'0 0.0
2015-Aug-20 15:30N 40°39' W 074°07'0 0.0
2015-Aug-20 14:33N 40°39' W 074°07'0 0.0
2015-Aug-20 13:33N 40°39' W 074°07'0 0.0
2015-Aug-20 12:33N 40°39' W 074°07'0 0.0
2015-Aug-20 11:30N 40°39' W 074°07'0 0.0
2015-Aug-20 10:33N 40°39' W 074°07'1 1.0
2015-Aug-20 09:31N 40°38' W 074°08'0 0.0
2015-Aug-20 08:31N 40°38' W 074°08'0 0.0
2015-Aug-20 07:31N 40°38' W 074°08'0 0.0
2015-Aug-20 06:31N 40°38' W 074°08'0 0.0
2015-Aug-20 05:31N 40°38' W 074°08'0 0.0
2015-Aug-20 04:31N 40°38' W 074°08'0 0.0
2015-Aug-20 03:31N 40°38' W 074°08'0 0.0
2015-Aug-20 02:31N 40°38' W 074°08'0 0.0
2015-Aug-20 01:31N 40°38' W 074°08'0 0.0
2015-Aug-20 00:31N 40°38' W 074°08'0 0.0
2015-Aug-19 23:31N 40°38' W 074°08'0 0.0
2015-Aug-19 22:31N 40°38' W 074°08'0 0.0
2015-Aug-19 21:31N 40°38' W 074°08'0 0.0
2015-Aug-19 20:31N 40°38' W 074°08'0 0.0
2015-Aug-19 19:31N 40°38' W 074°08'0 0.5
2015-Aug-19 18:30N 40°39' W 074°07'0 0.0
2015-Aug-19 17:30N 40°38' W 074°07'0 0.0
2015-Aug-19 16:33N 40°39' W 074°07'0 0.0
2015-Aug-19 15:23N 40°38' W 074°07'0 0.0
2015-Aug-19 14:32N 40°39' W 074°07'0 0.0
2015-Aug-19 13:30N 40°39' W 074°07'0 0.0
2015-Aug-19 12:33N 40°39' W 074°07'0 0.0
2015-Aug-19 10:33N 40°38' W 074°07'0 0.0
2015-Aug-19 09:33N 40°39' W 074°07'0 0.0
2015-Aug-19 08:27N 40°39' W 074°07'0 0.0
2015-Aug-19 07:27N 40°38' W 074°07'0 0.0
2015-Aug-19 05:33N 40°38' W 074°07'0 0.0
2015-Aug-19 04:33N 40°39' W 074°07'0 0.0
2015-Aug-19 03:27N 40°38' W 074°07'0 0.0
2015-Aug-19 02:33N 40°38' W 074°07'0 0.0
2015-Aug-19 01:30N 40°39' W 074°07'0 0.0
2015-Aug-19 00:33N 40°39' W 074°07'0 0.0
2015-Aug-18 23:33N 40°38' W 074°07'0 0.0
2015-Aug-18 22:28N 40°38' W 074°07'0 0.0
2015-Aug-18 21:24N 40°39' W 074°07'0 0.0
2015-Aug-18 20:33N 40°38' W 074°07'0 0.0
2015-Aug-18 19:33N 40°39' W 074°07'0 0.0
2015-Aug-18 18:24N 40°39' W 074°07'0 0.0
2015-Aug-18 17:33N 40°38' W 074°07'0 0.0
2015-Aug-18 16:33N 40°38' W 074°07'0 0.0
2015-Aug-18 15:33N 40°38' W 074°07'0 0.0
2015-Aug-18 14:33N 40°38' W 074°07'0 0.0
2015-Aug-18 13:26N 40°39' W 074°07'  

Dump ship's entire track history